Time;durP1;ratioP1;P1;durP2;ratioP2;P2;SDS_P1;SDS_P2;PMS_P1;PMS_P2;Temp;Humidity;BMP_temperature;BMP_pressure;BME280_temperature;BME280_humidity;BME280_pressure;Samples;Min_cycle;Max_cycle;Signal;HPM_P1;HPM_P2
2024/01/21 00:01:24;;;;;;;0.70;0.70;;;;;;;2.31;nan;100673.25;5071718;28;20664;-68
2024/01/21 00:03:51;;;;;;;0.80;0.80;;;;;;;2.32;nan;100664.84;5072008;28;20275;-68
2024/01/21 00:06:18;;;;;;;1.20;1.03;;;;;;;2.35;nan;100664.91;5071819;28;20195;-68
2024/01/21 00:08:44;;;;;;;0.80;0.80;;;;;;;2.38;nan;100667.53;5072040;28;20196;-69
2024/01/21 00:11:11;;;;;;;0.70;0.70;;;;;;;2.42;nan;100681.97;5073217;28;20200;-68
2024/01/21 00:13:39;;;;;;;0.60;0.60;;;;;;;2.42;nan;100674.38;5071213;28;20196;-68
2024/01/21 00:16:06;;;;;;;0.60;0.60;;;;;;;2.45;nan;100676.97;5071466;28;20191;-68
2024/01/21 00:18:33;;;;;;;0.60;0.60;;;;;;;2.48;nan;100677.03;5071544;28;20249;-68
2024/01/21 00:20:59;;;;;;;0.70;0.70;;;;;;;2.53;nan;100683.03;5071474;28;20277;-68
2024/01/21 00:23:26;;;;;;;0.60;0.60;;;;;;;2.52;nan;100681.34;5071603;28;20737;-68
2024/01/21 00:25:53;;;;;;;0.70;0.70;;;;;;;2.54;nan;100687.28;5072638;28;20265;-68
2024/01/21 00:28:20;;;;;;;0.53;0.53;;;;;;;2.53;nan;100685.56;5071440;28;20211;-68
2024/01/21 00:30:48;;;;;;;0.67;0.67;;;;;;;2.52;nan;100688.94;5071733;28;20192;-68
2024/01/21 00:33:14;;;;;;;0.90;0.90;;;;;;;2.45;nan;100707.34;5071160;28;20768;-68
2024/01/21 00:35:41;;;;;;;0.70;0.70;;;;;;;2.33;nan;100704.50;5071311;28;20253;-68
2024/01/21 00:38:08;;;;;;;0.70;0.70;;;;;;;2.22;nan;100709.31;5070421;28;20250;-68
2024/01/21 00:40:34;;;;;;;0.70;0.70;;;;;;;2.16;nan;100709.19;5070668;28;20208;-68
2024/01/21 00:43:01;;;;;;;0.70;0.70;;;;;;;2.06;nan;100705.56;5071118;28;20200;-68
2024/01/21 00:45:28;;;;;;;0.70;0.70;;;;;;;2.13;nan;100722.59;5071710;28;20204;-68
2024/01/21 00:47:56;;;;;;;0.70;0.70;;;;;;;2.10;nan;100717.44;5070028;28;20192;-68
2024/01/21 00:50:23;;;;;;;0.57;0.57;;;;;;;2.06;nan;100727.47;5070913;28;20269;-68
2024/01/21 00:52:49;;;;;;;0.70;0.70;;;;;;;2.01;nan;100721.41;5070525;28;20235;-68
2024/01/21 00:55:16;;;;;;;0.77;0.77;;;;;;;1.99;nan;100715.47;5070641;28;20200;-68
2024/01/21 00:57:43;;;;;;;1.17;1.17;;;;;;;1.97;nan;100717.97;5070541;28;20253;-68
2024/01/21 01:00:10;;;;;;;1.00;1.00;;;;;;;1.98;nan;100719.69;5070844;28;20203;-68
2024/01/21 01:02:37;;;;;;;0.80;0.80;;;;;;;2.00;nan;100712.97;5070726;28;20643;-67
2024/01/21 01:05:06;;;;;;;0.60;0.60;;;;;;;2.01;nan;100709.63;5071063;28;20621;-68
2024/01/21 01:07:33;;;;;;;0.80;0.80;;;;;;;2.09;nan;100718.28;5070533;28;20249;-68
2024/01/21 01:10:00;;;;;;;0.70;0.70;;;;;;;2.13;nan;100718.38;5070915;28;20208;-68
2024/01/21 01:12:27;;;;;;;0.70;0.70;;;;;;;2.03;nan;100722.34;5070795;28;20633;-68
2024/01/21 01:14:53;;;;;;;0.70;0.70;;;;;;;2.03;nan;100715.63;5070464;28;20207;-68
2024/01/21 01:17:20;;;;;;;1.13;1.13;;;;;;;1.97;nan;100707.84;5072801;28;20560;-68
2024/01/21 01:19:47;;;;;;;0.70;0.70;;;;;;;2.08;nan;100711.50;5070525;28;20200;-67
2024/01/21 01:22:15;;;;;;;0.70;0.70;;;;;;;2.05;nan;100721.56;5070608;28;20276;-68
2024/01/21 01:24:42;;;;;;;0.60;0.60;;;;;;;2.01;nan;100719.75;5070225;28;20200;-68
2024/01/21 01:27:09;;;;;;;0.67;0.67;;;;;;;1.84;nan;100695.72;5070610;28;20697;-68
2024/01/21 01:29:36;;;;;;;0.80;0.80;;;;;;;1.97;nan;100715.44;5070486;28;20254;-68
2024/01/21 01:32:02;;;;;;;0.83;0.83;;;;;;;1.98;nan;100719.69;5069882;28;20196;-68
2024/01/21 01:34:29;;;;;;;0.67;0.67;;;;;;;2.00;nan;100714.69;5070360;28;20671;-68
2024/01/21 01:36:56;;;;;;;0.60;0.60;;;;;;;1.98;nan;100714.63;5070309;28;20560;-68
2024/01/21 01:39:24;;;;;;;0.80;0.80;;;;;;;1.94;nan;100707.78;5070724;28;20196;-68
2024/01/21 01:41:50;;;;;;;1.40;0.93;;;;;;;1.91;nan;100710.22;5070217;28;20281;-68
2024/01/21 01:44:17;;;;;;;0.60;0.60;;;;;;;1.91;nan;100712.75;5069951;28;20274;-68
2024/01/21 01:46:44;;;;;;;0.70;0.70;;;;;;;1.95;nan;100706.97;5070195;28;20249;-68
2024/01/21 01:49:11;;;;;;;0.93;0.93;;;;;;;1.92;nan;100709.41;5070187;28;20200;-68
2024/01/21 01:51:38;;;;;;;0.97;0.97;;;;;;;1.94;nan;100717.88;5074060;28;20191;-68
2024/01/21 01:54:05;;;;;;;0.70;0.70;;;;;;;1.79;nan;100714.97;5069698;28;20208;-68
2024/01/21 01:56:34;;;;;;;0.90;0.90;;;;;;;1.84;nan;100710.88;5074853;28;20679;-68
2024/01/21 01:59:03;;;;;;;0.60;0.60;;;;;;;1.83;nan;100719.31;5073387;28;20204;-68
2024/01/21 02:01:31;;;;;;;0.60;0.60;;;;;;;1.87;nan;100716.03;5074145;28;20773;-68
2024/01/21 02:03:58;;;;;;;0.60;0.60;;;;;;;1.90;nan;100715.25;5074051;28;20249;-68
2024/01/21 02:06:24;;;;;;;0.70;0.70;;;;;;;1.92;nan;100718.66;5075091;28;20198;-68
2024/01/21 02:08:51;;;;;;;0.60;0.60;;;;;;;1.98;nan;100724.75;5074535;28;20199;-68
2024/01/21 02:11:18;;;;;;;0.83;0.83;;;;;;;1.99;nan;100729.00;5071743;28;20249;-68
2024/01/21 02:13:46;;;;;;;0.70;0.70;;;;;;;2.00;nan;100730.69;5073829;28;20269;-68
2024/01/21 02:16:12;;;;;;;0.63;0.63;;;;;;;1.87;nan;100711.00;5073770;28;20200;-68
2024/01/21 02:18:39;;;;;;;0.60;0.60;;;;;;;2.01;nan;100723.97;5073835;28;20204;-68
2024/01/21 02:21:06;;;;;;;0.80;0.80;;;;;;;2.02;nan;100729.06;5073856;28;20269;-68
2024/01/21 02:23:34;;;;;;;1.23;1.23;;;;;;;2.01;nan;100724.81;5073644;28;20264;-68
2024/01/21 02:26:01;;;;;;;0.90;0.90;;;;;;;2.04;nan;100722.34;5073567;28;20203;-68
2024/01/21 02:28:27;;;;;;;0.60;0.60;;;;;;;2.01;nan;100718.91;5073693;28;20660;-67
2024/01/21 02:30:54;;;;;;;0.60;0.60;;;;;;;2.07;nan;100727.50;5073492;28;20629;-68
2024/01/21 02:33:21;;;;;;;0.90;0.90;;;;;;;2.09;nan;100725.88;5073844;28;20228;-68
2024/01/21 02:35:47;;;;;;;0.83;0.83;;;;;;;2.07;nan;100727.50;5073272;28;20200;-68
2024/01/21 02:38:14;;;;;;;0.60;0.60;;;;;;;2.13;nan;100725.13;5073709;28;20233;-68
2024/01/21 02:40:42;;;;;;;0.93;0.93;;;;;;;2.18;nan;100732.81;5073413;28;20656;-68
2024/01/21 02:43:09;;;;;;;0.90;0.90;;;;;;;2.21;nan;100724.44;5073491;28;20192;-68
2024/01/21 02:45:36;;;;;;;0.73;0.73;;;;;;;2.21;nan;100721.91;5073118;28;20265;-68
2024/01/21 02:48:03;;;;;;;0.67;0.67;;;;;;;2.22;nan;100723.66;5073125;28;20288;-68
2024/01/21 02:50:29;;;;;;;0.93;0.93;;;;;;;2.19;nan;100729.50;5074036;28;20553;-68
2024/01/21 02:52:56;;;;;;;0.70;0.70;;;;;;;2.18;nan;100725.25;5073066;28;20196;-68
2024/01/21 02:55:23;;;;;;;0.80;0.80;;;;;;;2.23;nan;100725.38;5072582;28;20204;-68
2024/01/21 02:57:51;;;;;;;0.60;0.60;;;;;;;2.24;nan;100730.44;5073062;28;20253;-68
2024/01/21 03:00:18;;;;;;;0.67;0.67;;;;;;;2.16;nan;100715.91;5073184;28;20204;-68
2024/01/21 03:02:45;;;;;;;0.73;0.73;;;;;;;2.20;nan;100730.34;5072147;28;20216;-68
2024/01/21 03:05:12;;;;;;;0.83;0.83;;;;;;;2.18;nan;100721.84;5072729;28;20625;-68
2024/01/21 03:07:38;;;;;;;0.60;0.60;;;;;;;2.21;nan;100734.56;5073161;28;20207;-68
2024/01/21 03:10:06;;;;;;;0.70;0.70;;;;;;;2.17;nan;100720.13;5072745;28;20196;-68
2024/01/21 03:12:35;;;;;;;0.60;0.60;;;;;;;2.23;nan;100723.66;5072880;28;20636;-68
2024/01/21 03:15:03;;;;;;;0.70;0.70;;;;;;;2.21;nan;100726.97;5072510;28;20196;-68
2024/01/21 03:17:29;;;;;;;0.70;0.70;;;;;;;2.13;nan;100712.47;5073335;28;20287;-68
2024/01/21 03:19:56;;;;;;;0.60;0.60;;;;;;;2.21;nan;100734.56;5072915;28;20750;-68
2024/01/21 03:22:22;;;;;;;0.90;0.90;;;;;;;2.22;nan;100727.03;5075901;28;20208;-68
2024/01/21 03:24:49;;;;;;;0.50;0.50;;;;;;;2.25;nan;100731.31;5074686;28;20760;-68
2024/01/21 03:27:16;;;;;;;0.70;0.70;;;;;;;2.18;nan;100726.91;5072501;28;20281;-68
2024/01/21 03:29:42;;;;;;;0.80;0.80;;;;;;;2.26;nan;100736.41;5073066;28;21694;-68
2024/01/21 03:32:11;;;;;;;1.00;1.00;;;;;;;2.26;nan;100750.75;5072484;28;20222;-68
2024/01/21 03:34:42;;;;;;;0.60;0.60;;;;;;;2.26;nan;100745.69;5072394;28;20192;-68
2024/01/21 03:37:09;;;;;;;0.77;0.77;;;;;;;2.25;nan;100754.94;5072484;28;20211;-68
2024/01/21 03:39:35;;;;;;;0.80;0.80;;;;;;;2.22;nan;100754.00;5072627;28;20560;-68
2024/01/21 03:42:02;;;;;;;0.80;0.80;;;;;;;2.19;nan;100756.47;5072295;28;20212;-68
2024/01/21 03:44:29;;;;;;;0.60;0.60;;;;;;;2.18;nan;100755.59;5072282;28;20203;-68
2024/01/21 03:46:55;;;;;;;0.60;0.60;;;;;;;2.18;nan;100763.19;5068807;28;20630;-68
2024/01/21 03:49:23;;;;;;;0.93;0.93;;;;;;;2.08;nan;100741.00;5072348;28;20196;-68
2024/01/21 03:51:50;;;;;;;0.73;0.73;;;;;;;2.20;nan;100755.66;5071829;28;20560;-68
2024/01/21 03:54:17;;;;;;;0.70;0.70;;;;;;;2.21;nan;100762.41;5071799;28;20634;-68
2024/01/21 03:56:43;;;;;;;1.13;1.13;;;;;;;2.19;nan;100759.84;5070251;28;20284;-68
2024/01/21 03:59:10;;;;;;;1.03;1.03;;;;;;;2.20;nan;100760.72;5071936;28;20200;-68
2024/01/21 04:01:43;;;;;;;0.90;0.90;;;;;;;2.22;nan;100756.53;5065728;28;20220;-68
2024/01/21 04:04:10;;;;;;;0.60;0.60;;;;;;;2.22;nan;100759.06;5069223;28;20200;-68
2024/01/21 04:06:40;;;;;;;0.70;0.70;;;;;;;2.24;nan;100759.94;5070802;28;20204;-68
2024/01/21 04:09:07;;;;;;;0.70;0.70;;;;;;;2.19;nan;100759.00;5072157;28;20196;-68
2024/01/21 04:11:34;;;;;;;0.80;0.80;;;;;;;2.17;nan;100755.53;5071841;28;22653;-68
2024/01/21 04:14:00;;;;;;;1.13;1.13;;;;;;;2.14;nan;100756.31;5071980;28;20204;-68
2024/01/21 04:16:27;;;;;;;0.97;0.97;;;;;;;1.98;nan;100754.22;5072190;28;20204;-68
2024/01/21 04:18:54;;;;;;;0.70;0.70;;;;;;;1.97;nan;100762.66;5071700;28;20200;-68
2024/01/21 04:21:21;;;;;;;0.80;0.80;;;;;;;1.91;nan;100758.25;5071725;28;20609;-68
2024/01/21 04:23:49;;;;;;;0.80;0.80;;;;;;;1.87;nan;100760.69;5071228;28;20667;-68
2024/01/21 04:26:16;;;;;;;0.70;0.70;;;;;;;1.81;nan;100758.84;5070169;28;20261;-68
2024/01/21 04:28:42;;;;;;;0.70;0.70;;;;;;;1.79;nan;100757.94;5071450;28;20208;-68
2024/01/21 04:31:10;;;;;;;0.90;0.90;;;;;;;1.78;nan;100751.16;5071416;28;20199;-68
2024/01/21 04:33:37;;;;;;;0.80;0.80;;;;;;;1.79;nan;100763.00;5071291;28;20603;-68
2024/01/21 04:36:05;;;;;;;0.63;0.63;;;;;;;1.82;nan;100757.16;5071029;28;20227;-68
2024/01/21 04:38:31;;;;;;;0.93;0.93;;;;;;;1.88;nan;100764.91;5071329;28;20207;-68
2024/01/21 04:41:00;;;;;;;0.90;0.90;;;;;;;1.80;nan;100738.59;5071519;28;20745;-68
2024/01/21 04:43:26;;;;;;;0.77;0.77;;;;;;;1.93;nan;100766.78;5071189;28;20251;-68
2024/01/21 04:45:55;;;;;;;1.00;1.00;;;;;;;1.96;nan;100766.84;5071107;28;20200;-68
2024/01/21 04:48:21;;;;;;;1.17;1.17;;;;;;;1.97;nan;100766.00;5071053;28;20196;-68
2024/01/21 04:50:48;;;;;;;0.80;0.80;;;;;;;1.96;nan;100776.97;5070823;28;20217;-68
2024/01/21 04:53:15;;;;;;;0.50;0.50;;;;;;;1.91;nan;100763.31;5070812;28;20188;-68
2024/01/21 04:55:42;;;;;;;0.70;0.70;;;;;;;1.98;nan;100774.47;5071111;28;20265;-67
2024/01/21 04:58:10;;;;;;;0.80;0.80;;;;;;;1.98;nan;100780.38;5070844;28;20257;-68
2024/01/21 05:00:36;;;;;;;0.90;0.90;;;;;;;1.99;nan;100781.25;5070784;28;20196;-68
2024/01/21 05:03:03;;;;;;;0.50;0.50;;;;;;;1.99;nan;100782.09;5070503;28;20211;-69
2024/01/21 05:05:30;;;;;;;0.70;0.70;;;;;;;1.99;nan;100792.22;5070885;28;20659;-68
2024/01/21 05:07:57;;;;;;;0.70;0.70;;;;;;;2.00;nan;100781.25;5070839;28;20196;-68
2024/01/21 05:10:24;;;;;;;0.83;0.83;;;;;;;1.99;nan;100784.63;5070878;28;20204;-69
2024/01/21 05:12:51;;;;;;;0.60;0.60;;;;;;;2.00;nan;100783.78;5070552;28;20196;-68
2024/01/21 05:15:19;;;;;;;0.70;0.70;;;;;;;1.97;nan;100782.88;5070715;28;20203;-69
2024/01/21 05:17:46;;;;;;;0.70;0.70;;;;;;;1.99;nan;100789.69;5070455;28;20634;-68
2024/01/21 05:20:13;;;;;;;0.63;0.63;;;;;;;1.98;nan;100790.50;5070354;28;20196;-68
2024/01/21 05:22:39;;;;;;;0.80;0.80;;;;;;;1.97;nan;100793.81;5070486;28;20216;-68
2024/01/21 05:25:07;;;;;;;0.70;0.70;;;;;;;1.97;nan;100796.34;5070096;28;20195;-68
2024/01/21 05:27:34;;;;;;;0.93;0.93;;;;;;;1.96;nan;100792.13;5069447;28;20200;-69
2024/01/21 05:30:00;;;;;;;1.13;1.13;;;;;;;1.93;nan;100797.13;5068093;28;20199;-68
2024/01/21 05:32:28;;;;;;;0.80;0.80;;;;;;;1.91;nan;100803.78;5072599;28;20219;-69
2024/01/21 05:34:55;;;;;;;0.80;0.80;;;;;;;1.87;nan;100802.00;5070491;28;20203;-68
2024/01/21 05:37:22;;;;;;;0.63;0.63;;;;;;;1.83;nan;100805.25;5070573;28;20196;-68
2024/01/21 05:39:48;;;;;;;0.60;0.60;;;;;;;1.80;nan;100809.38;5070417;28;20200;-69
2024/01/21 05:42:15;;;;;;;0.97;0.97;;;;;;;1.74;nan;100805.03;5069747;28;20212;-68
2024/01/21 05:44:42;;;;;;;0.87;0.87;;;;;;;1.62;nan;100808.88;5070444;28;20265;-68
2024/01/21 05:47:08;;;;;;;1.40;1.40;;;;;;;1.62;nan;100812.22;5069936;28;20200;-68
2024/01/21 05:49:36;;;;;;;0.83;0.83;;;;;;;1.58;nan;100818.03;5070192;28;20203;-68
2024/01/21 05:52:03;;;;;;;0.90;0.90;;;;;;;1.54;nan;100826.34;5070429;28;20200;-69
2024/01/21 05:54:30;;;;;;;0.70;0.70;;;;;;;1.49;nan;100822.81;5068312;28;20734;-69
2024/01/21 05:56:57;;;;;;;1.10;1.10;;;;;;;1.42;nan;100831.03;5069383;28;20207;-68
2024/01/21 05:59:23;;;;;;;0.60;0.60;;;;;;;1.36;nan;100830.84;5069880;28;20257;-68
2024/01/21 06:01:50;;;;;;;0.80;0.80;;;;;;;1.31;nan;100822.28;5070194;28;20709;-68
2024/01/21 06:04:17;;;;;;;1.33;1.33;;;;;;;1.29;nan;100828.97;5069983;28;20196;-68
2024/01/21 06:06:45;;;;;;;0.50;0.50;;;;;;;1.23;nan;100841.41;5068429;28;20208;-68
2024/01/21 06:09:12;;;;;;;0.87;0.87;;;;;;;1.19;nan;100848.03;5074253;28;20203;-69
2024/01/21 06:11:38;;;;;;;1.47;1.47;;;;;;;1.18;nan;100850.50;5073888;28;20258;-68
2024/01/21 06:14:05;;;;;;;0.90;0.90;;;;;;;1.17;nan;100842.06;5074731;28;20200;-68
2024/01/21 06:16:32;;;;;;;1.13;1.13;;;;;;;1.04;nan;100823.16;5071910;28;20192;-68
2024/01/21 06:18:58;;;;;;;0.87;0.87;;;;;;;1.15;nan;100846.22;5069100;28;20250;-68
2024/01/21 06:21:25;;;;;;;0.93;0.93;;;;;;;1.15;nan;100855.47;5069171;28;20309;-68
2024/01/21 06:23:53;;;;;;;1.77;1.77;;;;;;;1.07;nan;100851.88;5072248;28;20768;-64
2024/01/21 06:26:24;;;;;;;0.90;0.90;;;;;;;1.04;nan;100848.41;5069753;28;20201;-64
2024/01/21 06:28:50;;;;;;;2.63;2.63;;;;;;;0.94;nan;100840.50;5069235;28;20199;-70
2024/01/21 06:31:17;;;;;;;1.03;1.03;;;;;;;0.98;nan;100858.31;5069594;28;20259;-70
2024/01/21 06:33:44;;;;;;;1.57;1.57;;;;;;;0.93;nan;100859.88;5069548;28;20235;-70
2024/01/21 06:36:11;;;;;;;3.10;3.00;;;;;;;0.88;nan;100866.41;5069837;28;20204;-70
2024/01/21 06:38:39;;;;;;;0.93;0.93;;;;;;;0.76;nan;100866.03;5072613;28;20200;-70
2024/01/21 06:41:07;;;;;;;1.37;1.37;;;;;;;0.70;nan;100875.94;5073276;28;20270;-70
2024/01/21 06:43:34;;;;;;;2.43;2.43;;;;;;;0.52;nan;100876.16;5073187;28;20223;-70
2024/01/21 06:46:00;;;;;;;1.00;1.00;;;;;;;0.48;nan;100879.41;5076046;28;20204;-70
2024/01/21 06:48:27;;;;;;;1.50;1.50;;;;;;;0.47;nan;100887.78;5072979;28;20257;-70
2024/01/21 06:50:54;;;;;;;1.43;1.43;;;;;;;0.42;nan;100885.91;5077470;28;20195;-70
2024/01/21 06:53:21;;;;;;;2.17;1.97;;;;;;;0.40;nan;100890.03;5074367;28;20196;-70
2024/01/21 06:55:48;;;;;;;0.70;0.70;;;;;;;0.34;nan;100889.81;5072927;28;20629;-70
2024/01/21 06:58:16;;;;;;;1.37;1.37;;;;;;;0.31;nan;100905.72;5072666;28;20257;-70
2024/01/21 07:00:43;;;;;;;0.80;0.80;;;;;;;0.21;nan;100907.84;5072910;28;20573;-70
2024/01/21 07:03:09;;;;;;;0.70;0.70;;;;;;;0.12;nan;100907.53;5073189;28;20269;-71
2024/01/21 07:05:36;;;;;;;0.70;0.70;;;;;;;0.03;nan;100907.22;5073151;28;20733;-70
2024/01/21 07:08:03;;;;;;;1.47;1.47;;;;;;;-0.25;nan;100910.38;5073037;28;20200;-70
2024/01/21 07:10:30;;;;;;;1.20;1.20;;;;;;;-0.56;nan;100909.22;5072423;28;20199;-70
2024/01/21 07:12:56;;;;;;;0.70;0.70;;;;;;;-0.85;nan;100913.94;5072811;28;20196;-70
2024/01/21 07:15:25;;;;;;;1.57;1.10;;;;;;;-0.96;nan;100917.66;5072611;28;20675;-70
2024/01/21 07:17:52;;;;;;;0.70;0.70;;;;;;;-1.02;nan;100919.94;5073080;28;20767;-70
2024/01/21 07:20:19;;;;;;;0.90;0.90;;;;;;;-1.08;nan;100921.41;5072854;28;20203;-71
2024/01/21 07:22:46;;;;;;;0.93;0.93;;;;;;;-1.11;nan;100918.78;5072524;28;20682;-70
2024/01/21 07:25:15;;;;;;;0.97;0.97;;;;;;;-1.07;nan;100922.28;5062722;28;20276;-70
2024/01/21 07:27:42;;;;;;;1.10;1.10;;;;;;;-1.07;nan;100923.13;5072375;28;20203;-70
2024/01/21 07:30:12;;;;;;;1.53;1.53;;;;;;;-0.96;nan;100921.03;5070002;28;20288;-70
2024/01/21 07:32:40;;;;;;;1.90;1.90;;;;;;;-0.87;nan;100926.44;5071291;28;20797;-70
2024/01/21 07:35:08;;;;;;;2.17;2.07;;;;;;;-0.89;nan;100932.22;5071614;28;20204;-70
2024/01/21 07:37:35;;;;;;;1.20;1.20;;;;;;;-0.78;nan;100925.97;5072298;28;20602;-70
2024/01/21 07:40:04;;;;;;;0.97;0.97;;;;;;;-0.63;nan;100927.41;5070739;28;20195;-70
2024/01/21 07:42:31;;;;;;;0.90;0.90;;;;;;;-0.51;nan;100911.91;5070297;28;20624;-70
2024/01/21 07:44:58;;;;;;;0.60;0.60;;;;;;;-0.26;nan;100929.66;5070746;28;20631;-70
2024/01/21 07:47:25;;;;;;;1.20;1.20;;;;;;;-0.17;nan;100929.16;5068801;28;20200;-70
2024/01/21 07:49:53;;;;;;;0.93;0.93;;;;;;;-0.07;nan;100932.09;5070238;28;20208;-70
2024/01/21 07:52:19;;;;;;;1.07;1.07;;;;;;;0.03;nan;100934.94;5070189;28;20204;-70
2024/01/21 07:54:46;;;;;;;2.10;2.00;;;;;;;0.09;nan;100936.03;5070668;28;20203;-70
2024/01/21 07:57:13;;;;;;;0.77;0.77;;;;;;;0.15;nan;100945.47;5071785;28;20664;-70
2024/01/21 07:59:40;;;;;;;1.30;1.30;;;;;;;0.28;nan;100950.13;5068079;28;20657;-70
2024/01/21 08:02:06;;;;;;;0.90;0.90;;;;;;;0.40;nan;100956.47;5070291;28;20204;-70
2024/01/21 08:04:33;;;;;;;1.23;1.23;;;;;;;0.48;nan;100944.16;5070000;28;20274;-70
2024/01/21 08:07:00;;;;;;;1.63;1.53;;;;;;;0.65;nan;100968.28;5069577;28;20208;-71
2024/01/21 08:09:28;;;;;;;0.97;0.97;;;;;;;0.73;nan;100966.88;5070704;28;20199;-64
2024/01/21 08:11:54;;;;;;;1.03;1.03;;;;;;;0.70;nan;100949.13;5071126;28;20208;-64
2024/01/21 08:14:21;;;;;;;2.17;2.17;;;;;;;0.64;nan;100966.56;5070279;28;20212;-65
2024/01/21 08:16:48;;;;;;;3.27;2.97;;;;;;;0.72;nan;100975.25;5070335;28;20258;-63
2024/01/21 08:19:17;;;;;;;0.93;0.93;;;;;;;0.78;nan;100972.94;5066509;28;20204;-63
2024/01/21 08:21:43;;;;;;;1.47;1.43;;;;;;;0.85;nan;100981.56;5069644;28;20660;-63
2024/01/21 08:24:11;;;;;;;0.70;0.70;;;;;;;0.85;nan;100972.34;5071353;28;20224;-64
2024/01/21 08:26:38;;;;;;;0.80;0.80;;;;;;;0.97;nan;100965.16;5068441;28;20702;-64
2024/01/21 08:29:05;;;;;;;0.63;0.63;;;;;;;1.19;nan;100978.53;5064302;28;20273;-63
2024/01/21 08:31:32;;;;;;;1.70;1.60;;;;;;;1.24;nan;100992.16;5070806;28;20689;-64
2024/01/21 08:33:59;;;;;;;0.83;0.83;;;;;;;1.35;nan;100986.66;5070570;28;20224;-63
2024/01/21 08:36:26;;;;;;;0.90;0.90;;;;;;;1.21;nan;100987.84;5070925;28;20204;-63
2024/01/21 08:38:52;;;;;;;1.10;1.10;;;;;;;1.22;nan;100994.63;5068980;28;20200;-64
2024/01/21 08:41:21;;;;;;;3.23;1.27;;;;;;;1.26;nan;100990.56;5069558;28;20196;-63
2024/01/21 08:43:47;;;;;;;1.63;1.63;;;;;;;1.37;nan;101000.19;5065687;28;20280;-63
2024/01/21 08:46:15;;;;;;;2.00;2.00;;;;;;;1.48;nan;100998.00;5070067;28;20216;-63
2024/01/21 08:48:44;;;;;;;2.23;2.13;;;;;;;1.16;nan;100923.72;5067753;28;20196;-62
2024/01/21 08:51:12;;;;;;;1.50;1.50;;;;;;;1.56;nan;100976.34;5070573;28;20238;-64
2024/01/21 08:53:39;;;;;;;2.37;2.37;;;;;;;1.61;nan;100979.88;5070667;28;20584;-63
2024/01/21 08:56:06;;;;;;;3.37;3.13;;;;;;;1.87;nan;101000.91;5070442;28;20203;-63
2024/01/21 08:58:35;;;;;;;2.50;2.40;;;;;;;1.98;nan;101002.94;5068106;28;20748;-63
2024/01/21 09:01:01;;;;;;;2.80;2.70;;;;;;;1.96;nan;100986.00;5068992;28;20606;-63
2024/01/21 09:03:28;;;;;;;1.70;1.70;;;;;;;2.08;nan;100999.00;5066446;28;20746;-63
2024/01/21 09:05:55;;;;;;;1.50;1.50;;;;;;;2.04;nan;100997.19;5067995;28;20726;-64
2024/01/21 09:08:22;;;;;;;1.70;1.17;;;;;;;2.09;nan;100996.53;5072620;28;20200;-62
2024/01/21 09:10:49;;;;;;;1.47;1.47;;;;;;;2.08;nan;100999.00;5070039;28;20683;-64
2024/01/21 09:13:17;;;;;;;1.87;1.87;;;;;;;2.13;nan;100996.63;5068292;28;20261;-63
2024/01/21 09:15:45;;;;;;;0.90;0.90;;;;;;;2.17;nan;100993.34;5070267;28;20663;-63
2024/01/21 09:18:12;;;;;;;0.80;0.80;;;;;;;2.27;nan;100995.31;5069808;28;20624;-63
2024/01/21 09:20:38;;;;;;;0.90;0.90;;;;;;;2.33;nan;100988.75;5069390;28;20274;-63
2024/01/21 09:23:05;;;;;;;0.80;0.80;;;;;;;2.45;nan;100995.88;5069771;28;20689;-63
2024/01/21 09:25:32;;;;;;;1.73;1.63;;;;;;;2.47;nan;100990.03;5067095;28;20273;-63
2024/01/21 09:27:59;;;;;;;2.53;2.43;;;;;;;2.49;nan;100992.56;5071353;28;20200;-63
2024/01/21 09:30:25;;;;;;;0.80;0.80;;;;;;;2.44;nan;100989.06;5072303;28;20212;-63
2024/01/21 09:32:53;;;;;;;1.17;1.17;;;;;;;2.56;nan;100985.19;5069134;28;20220;-63
2024/01/21 09:35:20;;;;;;;1.20;1.20;;;;;;;2.64;nan;100980.34;5069938;28;20208;-64
2024/01/21 09:37:47;;;;;;;0.80;0.80;;;;;;;2.61;nan;100957.50;5065467;28;20211;-63
2024/01/21 09:40:14;;;;;;;1.37;1.27;;;;;;;2.88;nan;100982.66;5070486;28;20311;-64
2024/01/21 09:42:40;;;;;;;1.20;1.20;;;;;;;2.91;nan;100997.97;5066852;28;20258;-62
2024/01/21 09:45:10;;;;;;;2.00;1.93;;;;;;;2.72;nan;100981.41;5070993;28;20270;-63
2024/01/21 09:47:38;;;;;;;1.27;1.27;;;;;;;2.76;nan;100992.47;5069974;28;20667;-63
2024/01/21 09:50:12;;;;;;;0.90;0.90;;;;;;;2.85;nan;100985.97;5068590;28;20694;-63
2024/01/21 09:52:38;;;;;;;2.10;2.10;;;;;;;2.79;nan;100973.16;5069701;28;20667;-63
2024/01/21 09:55:06;;;;;;;0.83;0.83;;;;;;;2.77;nan;100974.81;5066931;28;20257;-63
2024/01/21 09:57:34;;;;;;;1.03;1.03;;;;;;;2.87;nan;100971.69;5067694;28;20290;-63
2024/01/21 10:00:03;;;;;;;0.60;0.60;;;;;;;2.87;nan;100976.75;5070242;28;20226;-66
2024/01/21 10:02:31;;;;;;;0.70;0.70;;;;;;;2.92;nan;100970.13;5070252;28;20574;-66
2024/01/21 10:04:58;;;;;;;0.73;0.73;;;;;;;2.96;nan;100971.06;5069476;28;20805;-66
2024/01/21 10:07:26;;;;;;;1.50;1.40;;;;;;;2.84;nan;100976.69;5068960;28;20273;-66
2024/01/21 10:09:55;;;;;;;0.90;0.90;;;;;;;2.68;nan;100973.72;5070252;28;20210;-66
2024/01/21 10:12:24;;;;;;;0.70;0.70;;;;;;;2.68;nan;100973.72;5073504;28;20200;-64
2024/01/21 10:14:51;;;;;;;0.90;0.90;;;;;;;2.63;nan;100965.97;5074373;28;20600;-63
2024/01/21 10:17:24;;;;;;;0.70;0.70;;;;;;;2.66;nan;100971.13;5074080;28;20211;-64
2024/01/21 10:19:54;;;;;;;0.77;0.77;;;;;;;2.73;nan;100973.00;5073920;28;20663;-64
2024/01/21 10:22:23;;;;;;;0.60;0.60;;;;;;;2.76;nan;100957.88;5073630;28;20200;-64
2024/01/21 10:24:51;;;;;;;0.90;0.90;;;;;;;2.89;nan;100964.13;5068264;28;20610;-64
2024/01/21 10:27:17;;;;;;;1.20;1.10;;;;;;;2.90;nan;100950.66;5071341;28;20200;-64
2024/01/21 10:29:46;;;;;;;0.83;0.83;;;;;;;2.95;nan;100934.75;5069155;28;20255;-64
2024/01/21 10:32:14;;;;;;;0.60;0.60;;;;;;;3.11;nan;100959.63;5069213;28;20222;-64
2024/01/21 10:34:42;;;;;;;0.80;0.80;;;;;;;2.96;nan;100960.94;5072412;28;20200;-64
2024/01/21 10:37:09;;;;;;;0.60;0.60;;;;;;;2.85;nan;100960.66;5071974;28;20676;-64
2024/01/21 10:39:37;;;;;;;1.83;1.83;;;;;;;2.96;nan;100954.19;5073216;28;20229;-64
2024/01/21 10:42:07;;;;;;;0.83;0.83;;;;;;;3.07;nan;100957.00;5071596;28;20216;-64
2024/01/21 10:44:35;;;;;;;0.70;0.70;;;;;;;3.12;nan;100966.44;5073071;28;20216;-63
2024/01/21 10:47:05;;;;;;;0.70;0.70;;;;;;;3.03;nan;100933.28;5072532;28;20207;-64
2024/01/21 10:49:33;;;;;;;0.80;0.80;;;;;;;3.24;nan;100957.38;5073520;28;20231;-64
2024/01/21 10:52:00;;;;;;;1.10;1.10;;;;;;;3.32;nan;100950.84;5072480;28;20203;-65
2024/01/21 10:54:28;;;;;;;0.93;0.93;;;;;;;3.30;nan;100953.31;5072693;28;20200;-64
2024/01/21 10:56:55;;;;;;;0.87;0.87;;;;;;;3.23;nan;100951.50;5072178;28;20204;-64
2024/01/21 10:59:23;;;;;;;0.90;0.90;;;;;;;3.24;nan;100952.31;5072650;28;20584;-64
2024/01/21 11:01:50;;;;;;;1.27;1.27;;;;;;;3.12;nan;100951.22;5072386;28;20207;-63
2024/01/21 11:04:17;;;;;;;1.03;1.03;;;;;;;3.05;nan;100944.28;5072135;28;20216;-63
2024/01/21 11:06:48;;;;;;;0.80;0.80;;;;;;;3.04;nan;100937.50;5072193;28;20200;-63
2024/01/21 11:09:16;;;;;;;0.90;0.90;;;;;;;2.93;nan;100916.13;5072391;28;20261;-63
2024/01/21 11:11:44;;;;;;;1.83;1.83;;;;;;;3.00;nan;100938.25;5066821;28;20211;-64
2024/01/21 11:14:31;;;;;;;1.10;1.10;;;;;;;3.01;nan;100932.34;5070058;28;20204;-65
2024/01/21 11:16:59;;;;;;;3.67;2.90;;;;;;;2.97;nan;100922.97;5069028;28;20486;-60
2024/01/21 11:19:31;;;;;;;1.80;1.70;;;;;;;3.09;nan;100918.22;5072634;28;20204;-60
2024/01/21 11:21:59;;;;;;;1.03;1.03;;;;;;;3.13;nan;100919.97;5070895;28;20208;-60
2024/01/21 11:24:30;;;;;;;0.60;0.60;;;;;;;3.14;nan;100915.78;5071046;28;20215;-60
2024/01/21 11:26:57;;;;;;;0.90;0.90;;;;;;;3.11;nan;100918.22;5071768;28;20228;-60
2024/01/21 11:29:26;;;;;;;1.10;1.10;;;;;;;3.04;nan;100909.63;5070835;28;20200;-60
2024/01/21 11:31:57;;;;;;;1.23;1.23;;;;;;;3.06;nan;100910.53;5070751;28;20271;-61
2024/01/21 11:34:25;;;;;;;0.80;0.80;;;;;;;3.05;nan;100906.28;5069032;28;20223;-61
2024/01/21 11:36:52;;;;;;;0.90;0.90;;;;;;;3.09;nan;100910.59;5070728;28;20196;-60
2024/01/21 11:39:19;;;;;;;1.10;1.10;;;;;;;3.05;nan;100903.75;5070418;28;20253;-61
2024/01/21 11:41:46;;;;;;;0.87;0.87;;;;;;;2.99;nan;100902.75;5072176;28;20204;-60
2024/01/21 11:44:14;;;;;;;0.70;0.70;;;;;;;3.01;nan;100896.88;5069422;28;20216;-60
2024/01/21 11:46:42;;;;;;;1.20;1.20;;;;;;;3.03;nan;100891.88;5072224;28;20231;-61
2024/01/21 11:49:10;;;;;;;0.67;0.67;;;;;;;3.05;nan;100896.16;5072332;28;20222;-60